Ghazni Airport


Codes: OAGN/GZI
Name: Ghazni Airport
City: Ghazni
Country: Afghanistan
Elevation: 7150 ft.
Wikipedia:

Photos at Ghazni Airport


   Photos courtesy of SpottingLog. You can add your own sightings and photos by signing up for a free trial today.



No photos found.

Weather at Ghazni Airport


Time (UTC)DescriptionTempratureWindCloud coverageVisibilityPressureHumidity
18-Apr-2024 00:00Light Rain7°C7 mph, N100%5059m1015hPa77%
18-Apr-2024 03:00Moderate Rain6°C4 mph, N100%3383m1016hPa84%
18-Apr-2024 06:00Moderate Rain5°C7 mph, N100%5159m1017hPa90%
18-Apr-2024 09:00Light Rain6°C7 mph, N100%9077m1016hPa88%
18-Apr-2024 12:00Overcast Clouds7°C7 mph, N100%10000m1013hPa83%
18-Apr-2024 15:00Overcast Clouds7°C7 mph, NW99%10000m1013hPa85%
18-Apr-2024 18:00Light Rain7°C4 mph, NW100%10000m1013hPa85%
18-Apr-2024 21:00Light Rain6°C2 mph, N100%7389m1012hPa89%
19-Apr-2024 00:00Light Rain6°C7 mph, N100%10000m1011hPa87%
19-Apr-2024 03:00Light Rain7°C4 mph, NW100%10000m1011hPa85%
19-Apr-2024 06:00Light Rain7°C4 mph, NW100%10000m1012hPa86%
19-Apr-2024 09:00Light Rain8°C4 mph, NW100%10000m1010hPa81%
19-Apr-2024 12:00Overcast Clouds9°C7 mph, NW100%10000m1009hPa73%
19-Apr-2024 15:00Overcast Clouds9°C7 mph, NW100%10000m1010hPa76%
19-Apr-2024 18:00Overcast Clouds8°C4 mph, N95%10000m1011hPa77%
19-Apr-2024 21:00Broken Clouds8°C4 mph, N78%10000m1010hPa77%
20-Apr-2024 00:00Broken Clouds8°C4 mph, N82%10000m1010hPa77%
20-Apr-2024 03:00Overcast Clouds9°C4 mph, NE94%10000m1012hPa70%
20-Apr-2024 06:00Light Rain12°C2 mph, E92%10000m1012hPa58%
20-Apr-2024 09:00Light Rain14°C4 mph, S43%10000m1009hPa45%
20-Apr-2024 12:00Light Rain15°C2 mph, S68%10000m1008hPa43%
20-Apr-2024 15:00Light Rain13°C2 mph, SW100%10000m1010hPa54%
20-Apr-2024 18:00Light Rain11°C7 mph, NE94%10000m1012hPa70%
20-Apr-2024 21:00Light Rain10°C4 mph, NE67%10000m1011hPa70%
21-Apr-2024 00:00Light Rain9°C2 mph, NE65%10000m1011hPa74%
21-Apr-2024 03:00Light Rain11°C2 mph, N93%10000m1012hPa61%
21-Apr-2024 06:00Light Rain14°C2 mph, E73%10000m1011hPa47%
21-Apr-2024 09:00Light Rain16°C7 mph, S15%10000m1008hPa40%
21-Apr-2024 12:00Light Rain10°C18 mph, S50%10000m1012hPa75%
21-Apr-2024 15:00Moderate Rain9°C7 mph, N100%10000m1014hPa76%
21-Apr-2024 18:00Overcast Clouds9°C4 mph, NW100%10000m1014hPa73%
21-Apr-2024 21:00Overcast Clouds10°C4 mph, N85%10000m1012hPa68%
22-Apr-2024 00:00Broken Clouds9°C7 mph, N76%10000m1013hPa71%
22-Apr-2024 03:00Broken Clouds11°C4 mph, N78%10000m1014hPa59%
22-Apr-2024 06:00Light Rain14°C2 mph, NE72%10000m1013hPa43%
22-Apr-2024 09:00Light Rain16°C4 mph, SE43%10000m1010hPa35%
22-Apr-2024 12:00Broken Clouds17°C7 mph, E55%10000m1008hPa33%
22-Apr-2024 15:00Broken Clouds14°C4 mph, E77%10000m1011hPa49%
22-Apr-2024 18:00Light Rain13°C4 mph, W77%10000m1013hPa60%
22-Apr-2024 21:00Few Clouds11°C2 mph, N19%10000m1012hPa62%